Time;durP1;ratioP1;P1;durP2;ratioP2;P2;SDS_P1;SDS_P2;PMS_P1;PMS_P2;Temp;Humidity;BMP_temperature;BMP_pressure;BME280_temperature;BME280_humidity;BME280_pressure;Samples;Min_cycle;Max_cycle;Signal;HPM_P1;HPM_P2
2023/11/17 00:01:31;;;;;;;50.30;31.60;;;;;;;6.12;100.00;98284.27;273003;1274;22276;-85
2023/11/17 00:07:33;;;;;;;49.50;32.00;;;;;;;6.13;100.00;98277.04;272462;1272;22471;-85
2023/11/17 00:13:37;;;;;;;51.20;31.60;;;;;;;6.10;100.00;98265.81;271826;1272;22583;-84
2023/11/17 00:19:40;;;;;;;46.90;29.90;;;;;;;6.07;100.00;98260.86;270586;1265;22308;-86
2023/11/17 00:25:42;;;;;;;54.00;30.30;;;;;;;6.06;100.00;98257.52;271138;1272;22534;-87
2023/11/17 00:31:44;;;;;;;50.90;31.00;;;;;;;6.05;100.00;98251.14;272249;1268;22396;-87
2023/11/17 00:37:46;;;;;;;50.00;28.80;;;;;;;5.97;100.00;98243.39;272070;1272;25299;-86
2023/11/17 00:43:48;;;;;;;49.60;28.10;;;;;;;5.91;100.00;98238.70;271569;1273;23200;-87
2023/11/17 00:49:51;;;;;;;46.70;27.70;;;;;;;5.91;100.00;98238.09;271996;1271;22407;-87
2023/11/17 00:55:53;;;;;;;41.00;25.60;;;;;;;5.96;100.00;98236.30;272258;1273;22646;-88
2023/11/17 01:01:55;;;;;;;40.60;26.10;;;;;;;5.98;100.00;98232.54;271692;1270;22413;-89
2023/11/17 01:07:59;;;;;;;42.10;25.30;;;;;;;5.97;100.00;98230.11;271915;1273;22290;-89
2023/11/17 01:14:03;;;;;;;42.50;25.90;;;;;;;5.98;100.00;98228.50;271664;1273;22435;-87
2023/11/17 01:20:07;;;;;;;34.40;20.10;;;;;;;5.99;100.00;98224.63;270247;1272;22195;-88
2023/11/17 01:26:09;;;;;;;26.20;15.70;;;;;;;5.96;100.00;98217.13;270551;1273;22291;-86
2023/11/17 01:32:11;;;;;;;23.20;13.10;;;;;;;5.92;100.00;98209.77;270444;1272;22772;-88
2023/11/17 01:38:13;;;;;;;18.30;10.60;;;;;;;5.90;100.00;98199.25;272460;1273;23399;-89
2023/11/17 01:44:15;;;;;;;20.40;10.60;;;;;;;5.87;100.00;98192.47;272362;1272;22715;-88
2023/11/17 01:50:17;;;;;;;21.00;11.10;;;;;;;5.87;100.00;98177.55;270648;1272;22468;-89
2023/11/17 01:56:20;;;;;;;26.60;12.90;;;;;;;5.86;100.00;98168.23;272018;1272;22546;-87
2023/11/17 02:02:22;;;;;;;18.90;11.40;;;;;;;5.85;100.00;98163.17;271347;1272;22574;-88
2023/11/17 02:08:57;;;;;;;23.30;11.70;;;;;;;5.87;100.00;98159.94;272515;1272;22255;-87
2023/11/17 02:15:09;;;;;;;24.10;12.60;;;;;;;5.91;100.00;98158.06;272205;1272;22341;-88
2023/11/17 02:21:17;;;;;;;22.10;12.20;;;;;;;5.91;100.00;98146.42;271059;1272;23781;-88
2023/11/17 02:27:38;;;;;;;24.10;13.60;;;;;;;5.88;100.00;98141.95;271009;1272;22572;-88
2023/11/17 02:33:44;;;;;;;27.40;14.60;;;;;;;5.87;100.00;98132.48;272165;1257;102277;-88
2023/11/17 02:39:49;;;;;;;26.60;14.90;;;;;;;5.86;100.00;98124.53;272956;1269;23172;-89
2023/11/17 02:45:52;;;;;;;21.70;13.40;;;;;;;5.85;100.00;98120.41;272724;1269;22359;-88
2023/11/17 02:51:55;;;;;;;21.10;13.20;;;;;;;5.83;100.00;98111.38;272666;1268;22581;-88
2023/11/17 02:57:57;;;;;;;24.60;14.60;;;;;;;5.84;100.00;98107.36;272307;1269;23100;-89
2023/11/17 03:03:59;;;;;;;25.70;15.80;;;;;;;5.83;100.00;98102.21;272820;1269;23259;-87
2023/11/17 03:10:50;;;;;;;23.20;14.10;;;;;;;5.77;100.00;98100.54;273655;1276;22349;-88
2023/11/17 03:26:37;;;;;;;25.80;15.20;;;;;;;5.69;100.00;98099.80;272055;1282;23503;-88
2023/11/17 03:34:09;;;;;;;27.20;14.50;;;;;;;5.69;100.00;98100.58;269768;1285;22450;-88
2023/11/17 03:42:09;;;;;;;23.80;14.00;;;;;;;5.68;100.00;98102.02;269009;1286;22346;-89
2023/11/17 03:49:43;;;;;;;;;;;;;;;5.69;100.00;98097.55;269701;1291;23385;-88
2023/11/17 03:56:50;;;;;;;23.70;14.20;;;;;;;5.70;100.00;98093.98;272025;1261;99758;-88
2023/11/17 04:02:52;;;;;;;23.90;14.50;;;;;;;5.70;100.00;98092.74;272772;1267;22971;-89
2023/11/17 04:08:55;;;;;;;26.00;14.70;;;;;;;5.72;100.00;98088.67;271129;1269;22731;-88
2023/11/17 04:14:57;;;;;;;31.20;14.50;;;;;;;5.73;100.00;98087.99;272208;1269;23258;-88
2023/11/17 04:20:59;;;;;;;24.80;14.80;;;;;;;5.72;100.00;98085.19;272295;1269;22290;-88
2023/11/17 04:27:16;;;;;;;26.20;17.60;;;;;;;5.73;100.00;98084.73;272456;1269;22197;-88
2023/11/17 04:33:19;;;;;;;24.50;16.00;;;;;;;5.72;100.00;98080.22;272724;1269;22600;-89
2023/11/17 04:39:24;;;;;;;26.70;16.80;;;;;;;5.73;100.00;98077.90;270728;1269;23387;-88
2023/11/17 04:54:20;;;;;;;31.10;18.40;;;;;;;5.74;100.00;98073.41;272504;1282;22235;-88
2023/11/17 05:00:23;;;;;;;32.90;18.60;;;;;;;5.76;100.00;98077.88;271064;1278;23557;-88
2023/11/17 05:14:00;;;;;;;35.10;20.00;;;;;;;5.82;100.00;98072.63;270997;1284;22185;-88
2023/11/17 05:20:28;;;;;;;34.50;21.20;;;;;;;5.83;100.00;98071.11;269368;1274;22535;-88
2023/11/17 05:26:31;;;;;;;40.80;24.60;;;;;;;5.86;100.00;98070.67;272425;1278;23091;-88
2023/11/17 05:40:33;;;;;;;35.00;22.30;;;;;;;5.88;100.00;98080.09;271906;1274;22398;-88
2023/11/17 05:47:00;;;;;;;34.80;22.40;;;;;;;5.88;100.00;98082.83;271886;1271;22200;-88
2023/11/17 05:53:06;;;;;;;34.90;22.10;;;;;;;5.89;100.00;98092.15;270428;1270;23312;-88
2023/11/17 05:59:11;;;;;;;37.40;22.70;;;;;;;5.90;100.00;98099.37;272318;1265;22287;-88
2023/11/17 06:05:15;;;;;;;36.20;22.10;;;;;;;5.87;100.00;98100.95;273076;1270;22376;-90
2023/11/17 06:19:04;;;;;;;34.50;20.50;;;;;;;5.93;100.00;98108.27;272706;1271;22195;-88
2023/11/17 06:25:33;;;;;;;35.90;21.80;;;;;;;5.97;100.00;98111.45;273244;1271;22316;-89
2023/11/17 06:55:35;;;;;;;45.30;28.40;;;;;;;6.12;100.00;98130.69;273246;1267;22192;-89
2023/11/17 07:01:38;;;;;;;37.70;24.10;;;;;;;6.14;100.00;98136.77;273228;1277;23334;-89
2023/11/17 07:07:40;;;;;;;38.10;22.50;;;;;;;6.17;100.00;98142.16;273295;1269;22195;-90
2023/11/17 07:13:42;;;;;;;39.70;21.80;;;;;;;6.20;100.00;98150.60;273114;1269;22392;-89
2023/11/17 07:19:45;;;;;;;31.20;19.50;;;;;;;6.21;100.00;98149.75;273156;1269;22988;-89
2023/11/17 07:25:47;;;;;;;31.30;18.10;;;;;;;6.22;100.00;98153.73;273092;1269;25161;-89
2023/11/17 07:31:50;;;;;;;27.60;17.30;;;;;;;6.27;100.00;98159.00;272365;1269;22388;-89
2023/11/17 07:37:52;;;;;;;25.70;15.20;;;;;;;6.30;100.00;98172.88;272833;1269;22549;-89
2023/11/17 07:44:15;;;;;;;24.70;15.80;;;;;;;6.29;100.00;98179.77;271658;1270;22961;-89
2023/11/17 07:50:19;;;;;;;27.60;16.50;;;;;;;6.27;100.00;98182.14;272818;1269;22383;-89
2023/11/17 07:56:21;;;;;;;24.30;15.80;;;;;;;6.29;100.00;98184.28;272687;1263;24216;-89
2023/11/17 08:02:23;;;;;;;23.60;14.70;;;;;;;6.33;100.00;98191.80;273141;1268;23377;-89
2023/11/17 08:08:25;;;;;;;21.30;13.90;;;;;;;6.35;100.00;98195.38;272830;1269;22602;-89
2023/11/17 08:14:28;;;;;;;20.00;13.80;;;;;;;6.36;100.00;98202.78;272941;1269;23621;-89
2023/11/17 08:20:32;;;;;;;19.70;12.70;;;;;;;6.33;100.00;98210.20;273196;1263;22407;-88
2023/11/17 08:26:35;;;;;;;19.10;11.80;;;;;;;6.32;100.00;98215.70;270991;1269;22605;-88
2023/11/17 08:32:38;;;;;;;16.00;10.50;;;;;;;6.34;100.00;98222.86;271631;1269;24246;-88
2023/11/17 08:38:43;;;;;;;16.50;10.30;;;;;;;6.33;100.00;98231.64;270785;1269;22641;-88
2023/11/17 08:44:45;;;;;;;15.70;9.90;;;;;;;6.35;100.00;98246.42;271954;1269;23464;-88
2023/11/17 08:50:47;;;;;;;16.20;11.10;;;;;;;6.37;100.00;98254.75;273372;1270;22396;-88
2023/11/17 08:56:48;;;;;;;13.80;10.10;;;;;;;6.40;100.00;98259.09;273219;1269;23099;-88
2023/11/17 09:02:53;;;;;;;29.50;14.70;;;;;;;6.46;100.00;98263.38;273254;1269;22278;-90
2023/11/17 09:09:10;;;;;;;26.70;11.00;;;;;;;6.46;100.00;98267.33;273434;1269;22293;-88
2023/11/17 09:16:07;;;;;;;14.70;8.40;;;;;;;6.51;100.00;98280.45;272609;1273;26359;-88
2023/11/17 09:22:12;;;;;;;22.10;11.80;;;;;;;6.55;100.00;98281.05;272264;1269;22415;-88
2023/11/17 09:28:15;;;;;;;11.00;7.00;;;;;;;6.50;100.00;98283.32;272994;1273;22222;-87
2023/11/17 09:34:33;;;;;;;9.20;6.10;;;;;;;6.41;100.00;98290.24;263333;1272;10190811;-88
2023/11/17 09:41:24;;;;;;;7.80;5.10;;;;;;;6.33;100.00;98287.46;271809;1272;22355;-88
2023/11/17 09:55:14;;;;;;;7.90;5.00;;;;;;;6.39;100.00;98290.29;272654;1282;22423;-88
2023/11/17 10:09:23;;;;;;;6.60;4.30;;;;;;;6.39;100.00;98297.52;270476;1290;22385;-88
2023/11/17 10:15:28;;;;;;;6.70;4.80;;;;;;;6.43;100.00;98297.48;269806;1279;22318;-88
2023/11/17 10:21:37;;;;;;;8.40;5.30;;;;;;;6.41;100.00;98295.98;271589;1273;23533;-87
2023/11/17 10:36:02;;;;;;;6.80;5.00;;;;;;;6.24;100.00;98305.56;273717;1276;22229;-88
2023/11/17 10:42:15;;;;;;;7.40;4.10;;;;;;;6.19;100.00;98312.61;273761;1267;23159;-88
2023/11/17 10:49:11;;;;;;;6.80;4.20;;;;;;;6.18;100.00;98316.20;273394;1276;22191;-88
2023/11/17 10:55:42;;;;;;;7.70;4.90;;;;;;;6.22;100.00;98317.89;273548;1271;23426;-88
2023/11/17 11:02:02;;;;;;;6.50;4.90;;;;;;;6.24;100.00;98328.02;273261;1269;22524;-87
2023/11/17 11:08:11;;;;;;;8.30;5.40;;;;;;;6.23;100.00;98340.56;273127;1269;22211;-88
2023/11/17 11:14:16;;;;;;;7.50;5.00;;;;;;;6.21;100.00;98343.40;272535;1269;25307;-88
2023/11/17 11:21:17;;;;;;;7.40;3.80;;;;;;;6.17;100.00;98346.69;271553;1272;22551;-88
2023/11/17 11:27:19;;;;;;;19.40;9.00;;;;;;;6.14;100.00;98349.89;270998;1272;23798;-88
2023/11/17 11:33:21;;;;;;;14.20;7.60;;;;;;;6.15;100.00;98349.52;272335;1272;22400;-89
2023/11/17 11:39:23;;;;;;;10.80;7.00;;;;;;;6.16;100.00;98350.23;272495;1272;22420;-89
2023/11/17 11:45:26;;;;;;;8.10;4.80;;;;;;;6.15;100.00;98351.84;272485;1273;22366;-90
2023/11/17 11:51:32;;;;;;;15.70;7.90;;;;;;;6.12;100.00;98353.34;273004;1269;23634;-90
2023/11/17 11:57:34;;;;;;;21.30;9.50;;;;;;;6.08;100.00;98357.22;273103;1269;22245;-89
2023/11/17 12:03:36;;;;;;;19.90;9.80;;;;;;;6.06;100.00;98360.46;273186;1270;22390;-89
2023/11/17 12:09:43;;;;;;;18.90;9.10;;;;;;;6.06;100.00;98363.86;273143;1269;22904;-89
2023/11/17 12:16:29;;;;;;;14.80;8.90;;;;;;;6.03;100.00;98377.55;273198;1269;22610;-89
2023/11/17 12:23:48;;;;;;;20.10;10.60;;;;;;;6.00;100.00;98384.64;272190;1278;23160;-88
2023/11/17 12:29:51;;;;;;;17.90;10.60;;;;;;;6.00;100.00;98394.26;272621;1280;22224;-89
2023/11/17 12:36:33;;;;;;;24.40;13.30;;;;;;;5.99;100.00;98404.48;272308;1276;22231;-88
2023/11/17 12:42:39;;;;;;;25.30;14.10;;;;;;;5.94;100.00;98415.48;272385;1273;23206;-89
2023/11/17 12:48:43;;;;;;;28.20;16.50;;;;;;;5.86;100.00;98415.80;271992;1274;22516;-89
2023/11/17 12:55:07;;;;;;;25.20;15.40;;;;;;;5.81;100.00;98417.48;272757;1269;22356;-88
2023/11/17 13:01:37;;;;;;;29.40;16.60;;;;;;;5.79;100.00;98427.81;273267;1269;23472;-87
2023/11/17 13:07:46;;;;;;;26.80;14.70;;;;;;;5.76;100.00;98442.55;272063;1270;22545;-87
2023/11/17 13:13:54;;;;;;;25.10;13.70;;;;;;;5.73;100.00;98445.14;272120;1270;22920;-89
2023/11/17 13:20:37;;;;;;;27.30;15.60;;;;;;;5.70;100.00;98448.17;273074;1276;23611;-89
2023/11/17 13:27:29;;;;;;;24.20;14.10;;;;;;;5.66;100.00;98449.33;273970;1276;22220;-89
2023/11/17 13:33:40;;;;;;;26.50;15.40;;;;;;;5.64;100.00;98453.95;272490;1272;23300;-90
2023/11/17 13:40:10;;;;;;;28.00;15.70;;;;;;;5.63;100.00;98466.49;273490;1270;22240;-89
2023/11/17 13:46:18;;;;;;;22.20;14.10;;;;;;;5.59;100.00;98484.23;271765;1269;22560;-90
2023/11/17 13:52:20;;;;;;;24.30;13.80;;;;;;;5.51;100.00;98493.67;272600;1271;23545;-89
2023/11/17 13:58:26;;;;;;;21.90;13.60;;;;;;;5.44;100.00;98502.60;273617;1270;22220;-85
2023/11/17 14:04:32;;;;;;;19.40;10.00;;;;;;;5.31;100.00;98517.09;273411;1265;22549;-89
2023/11/17 14:10:38;;;;;;;19.80;10.30;;;;;;;5.10;100.00;98532.77;273595;1271;22173;-88
2023/11/17 14:16:41;;;;;;;14.10;8.70;;;;;;;4.87;100.00;98547.84;273540;1269;22256;-88
2023/11/17 14:29:29;;;;;;;17.30;9.40;;;;;;;4.52;100.00;98577.17;272308;1269;22556;-89
2023/11/17 14:35:39;;;;;;;21.70;12.20;;;;;;;4.38;100.00;98589.48;271519;1270;24375;-88
2023/11/17 14:41:41;;;;;;;25.80;12.60;;;;;;;4.27;100.00;98591.23;271095;1269;22621;-92
2023/11/17 14:47:55;;;;;;;23.60;13.50;;;;;;;4.21;100.00;98604.61;271615;1269;22574;-88
2023/11/17 14:54:17;;;;;;;22.40;13.20;;;;;;;4.21;100.00;98620.27;272070;1269;23243;-88
2023/11/17 15:00:56;;;;;;;22.30;13.70;;;;;;;4.13;100.00;98631.54;272696;1260;23421;-89
2023/11/17 15:06:59;;;;;;;21.30;14.20;;;;;;;4.03;100.00;98641.83;270693;1269;23902;-89
2023/11/17 15:13:22;;;;;;;31.90;17.30;;;;;;;3.96;100.00;98644.15;273320;1267;22261;-88
2023/11/17 15:19:26;;;;;;;37.50;20.10;;;;;;;3.93;100.00;98654.45;271835;1268;24342;-87
2023/11/17 15:25:50;;;;;;;29.00;19.20;;;;;;;3.89;100.00;98664.14;273630;1273;22188;-88
2023/11/17 15:32:45;;;;;;;24.10;15.40;;;;;;;3.82;100.00;98676.69;273525;1276;23339;-89
2023/11/17 15:39:16;;;;;;;22.40;15.90;;;;;;;3.64;100.00;98688.30;273371;1269;22963;-90
2023/11/17 15:46:09;;;;;;;22.30;14.60;;;;;;;3.52;100.00;98703.16;273451;1270;22577;-89
2023/11/17 15:52:36;;;;;;;20.10;13.00;;;;;;;3.40;100.00;98709.38;271908;1269;22242;-89
2023/11/17 15:59:12;;;;;;;21.70;15.50;;;;;;;3.28;100.00;98723.11;273117;1270;22203;-90
2023/11/17 16:06:06;;;;;;;25.30;16.10;;;;;;;3.13;100.00;98736.56;273439;1277;22297;-90
2023/11/17 16:13:32;;;;;;;23.80;15.50;;;;;;;3.07;100.00;98745.33;272565;1275;22757;-88
2023/11/17 16:20:05;;;;;;;21.10;13.20;;;;;;;3.09;100.00;98754.89;272628;1277;22233;-90
2023/11/17 16:26:52;;;;;;;20.30;12.80;;;;;;;3.05;100.00;98759.30;272890;1269;22192;-90
2023/11/17 16:33:00;;;;;;;23.40;14.80;;;;;;;2.99;100.00;98777.06;272815;1272;22257;-90
2023/11/17 16:39:10;;;;;;;22.60;14.30;;;;;;;2.94;100.00;98782.70;272315;1273;22232;-90
2023/11/17 16:45:32;;;;;;;23.00;15.90;;;;;;;2.88;100.00;98791.04;272788;1273;22245;-90
2023/11/17 16:51:34;;;;;;;24.80;17.10;;;;;;;2.83;100.00;98798.92;272909;1275;22261;-90
2023/11/17 17:04:27;;;;;;;22.40;15.80;;;;;;;2.85;100.00;98810.05;271832;1265;23913;-91
2023/11/17 17:10:57;;;;;;;17.30;12.80;;;;;;;2.87;100.00;98817.10;271981;1270;23221;-89
2023/11/17 17:17:13;;;;;;;17.70;13.40;;;;;;;2.85;100.00;98819.42;271669;1269;22211;-89
2023/11/17 17:23:17;;;;;;;17.50;12.20;;;;;;;2.81;100.00;98823.68;271569;1269;22387;-90
2023/11/17 17:29:28;;;;;;;25.10;13.60;;;;;;;2.77;100.00;98833.85;273409;1269;22400;-89
2023/11/17 17:35:45;;;;;;;24.30;12.60;;;;;;;2.75;100.00;98842.58;272701;1257;23429;-90
2023/11/17 17:42:13;;;;;;;20.30;13.00;;;;;;;2.73;100.00;98843.36;273152;1269;22385;-88
2023/11/17 17:48:42;;;;;;;19.90;12.50;;;;;;;2.73;100.00;98844.89;272440;1259;22222;-91
2023/11/17 17:54:56;;;;;;;19.60;12.40;;;;;;;2.67;100.00;98847.20;273550;1270;22631;-90
2023/11/17 18:01:11;;;;;;;20.10;13.40;;;;;;;2.64;100.00;98853.58;273472;1274;22438;-90
2023/11/17 18:07:18;;;;;;;20.40;13.40;;;;;;;2.64;100.00;98855.27;273350;1269;22230;-90
2023/11/17 18:14:02;;;;;;;19.30;13.30;;;;;;;2.62;100.00;98857.98;273064;1269;22419;-90
2023/11/17 18:20:05;;;;;;;22.40;14.80;;;;;;;2.60;100.00;98865.30;272452;1269;22566;-89
2023/11/17 18:26:11;;;;;;;19.80;13.30;;;;;;;2.58;100.00;98868.95;272974;1269;22192;-91
2023/11/17 18:32:41;;;;;;;18.60;12.00;;;;;;;2.56;100.00;98868.03;273055;1269;23550;-88
2023/11/17 18:39:11;;;;;;;22.60;12.80;;;;;;;2.55;100.00;98872.91;272996;1269;22647;-89
2023/11/17 18:46:06;;;;;;;19.70;11.80;;;;;;;2.56;100.00;98875.81;273014;1269;23162;-89
2023/11/17 18:52:35;;;;;;;16.80;10.40;;;;;;;2.59;100.00;98882.96;272803;1269;22338;-88
2023/11/17 18:58:42;;;;;;;19.90;10.30;;;;;;;2.58;100.00;98895.36;273418;1269;22383;-90
2023/11/17 19:04:50;;;;;;;17.70;10.40;;;;;;;2.55;100.00;98899.69;273694;1269;22230;-89
2023/11/17 19:11:20;;;;;;;14.40;10.90;;;;;;;2.53;100.00;98899.84;272148;1268;22294;-89
2023/11/17 19:17:44;;;;;;;16.80;11.30;;;;;;;2.54;100.00;98899.41;273597;1269;24796;-89
2023/11/17 19:23:49;;;;;;;19.20;11.40;;;;;;;2.53;100.00;98904.39;272380;1267;23094;-88
2023/11/17 19:30:12;;;;;;;22.10;12.30;;;;;;;2.53;100.00;98905.16;273313;1276;23653;-88
2023/11/17 19:36:52;;;;;;;20.50;12.60;;;;;;;2.55;100.00;98911.10;273505;1267;22554;-88
2023/11/17 19:42:53;;;;;;;22.50;12.50;;;;;;;2.55;100.00;98905.95;271890;1268;22541;-88
2023/11/17 19:49:15;;;;;;;14.70;8.80;;;;;;;2.57;100.00;98906.48;272489;1259;22325;-89
2023/11/17 19:55:22;;;;;;;13.80;8.00;;;;;;;2.59;100.00;98909.44;271572;1258;22583;-89
2023/11/17 20:02:12;;;;;;;12.60;7.40;;;;;;;2.61;100.00;98912.14;272950;1269;22214;-88
2023/11/17 20:08:16;;;;;;;15.10;9.10;;;;;;;2.61;100.00;98917.77;272374;1269;23472;-89
2023/11/17 20:14:18;;;;;;;16.50;9.30;;;;;;;2.64;100.00;98918.60;273118;1271;22185;-88
2023/11/17 20:20:24;;;;;;;18.20;9.40;;;;;;;2.64;100.00;98925.38;272685;1269;22543;-89
2023/11/17 20:26:29;;;;;;;16.70;9.50;;;;;;;2.62;100.00;98930.56;273599;1276;22940;-89
2023/11/17 20:32:49;;;;;;;18.60;10.20;;;;;;;2.65;100.00;98930.43;272248;1269;23696;-87
2023/11/17 20:39:10;;;;;;;;;;;;;;;;;;;;;
2023/11/17 20:46:01;;;;;;;17.40;10.10;;;;;;;2.69;100.00;98942.73;272360;1264;22979;-88
2023/11/17 20:52:05;;;;;;;;;;;;;;;2.73;100.00;98946.01;272722;1269;22467;-87
2023/11/17 20:59:03;;;;;;;14.00;8.60;;;;;;;2.77;100.00;98950.31;273132;1268;22166;-88
2023/11/17 21:05:32;;;;;;;15.50;9.00;;;;;;;2.81;100.00;98954.43;272374;1269;22159;-87
2023/11/17 21:11:45;;;;;;;15.30;9.20;;;;;;;2.84;100.00;98967.54;273109;1268;22215;-88
2023/11/17 21:17:53;;;;;;;18.30;9.60;;;;;;;2.85;100.00;98966.64;273182;1270;22204;-87
2023/11/17 21:23:56;;;;;;;15.60;8.10;;;;;;;2.86;100.00;98971.71;272599;1269;22262;-88
2023/11/17 21:30:06;;;;;;;12.50;7.60;;;;;;;2.86;100.00;98973.24;271091;1266;2845233;-87
2023/11/17 21:36:14;;;;;;;14.60;7.60;;;;;;;2.89;100.00;98973.44;273042;1270;22207;-87
2023/11/17 21:42:23;;;;;;;13.70;7.30;;;;;;;2.90;100.00;98980.30;273038;1269;22333;-88
2023/11/17 21:48:37;;;;;;;13.30;6.80;;;;;;;2.90;100.00;98989.80;272046;1267;23429;-90
2023/11/17 21:54:40;;;;;;;13.30;7.60;;;;;;;2.91;100.00;99000.48;265445;1270;10002009;-86
2023/11/17 22:00:42;;;;;;;9.90;6.00;;;;;;;2.92;100.00;99000.22;273457;1269;22441;-87
2023/11/17 22:06:52;;;;;;;8.80;5.30;;;;;;;2.93;100.00;99009.76;273570;1268;22199;-88
2023/11/17 22:13:21;;;;;;;11.60;5.60;;;;;;;2.92;100.00;99013.73;273464;1270;23343;-88
2023/11/17 22:19:23;;;;;;;10.60;6.30;;;;;;;2.93;100.00;99019.20;272441;1269;22443;-89
2023/11/17 22:25:50;;;;;;;11.40;6.00;;;;;;;2.96;100.00;99021.71;273537;1271;22348;-87
2023/11/17 22:31:55;;;;;;;;;;;;;;;3.01;100.00;99025.55;273738;1269;22431;-88
2023/11/17 22:37:57;;;;;;;10.40;6.20;;;;;;;3.03;100.00;99025.17;272690;1269;22864;-86
2023/11/17 22:44:04;;;;;;;11.10;6.40;;;;;;;3.02;100.00;99027.52;273750;1269;22168;-87
2023/11/17 22:50:13;;;;;;;12.10;6.50;;;;;;;3.04;100.00;99029.38;273469;1260;23463;-87
2023/11/17 22:56:21;;;;;;;10.80;5.90;;;;;;;3.05;100.00;99033.73;273494;1273;22239;-87
2023/11/17 23:02:27;;;;;;;11.40;6.50;;;;;;;3.04;100.00;99032.15;273698;1272;22357;-88
2023/11/17 23:08:35;;;;;;;10.90;6.70;;;;;;;3.05;100.00;99032.13;273768;1269;22184;-88
2023/11/17 23:15:19;;;;;;;11.40;7.20;;;;;;;3.07;100.00;99029.52;273727;1269;22377;-87
2023/11/17 23:21:21;;;;;;;13.80;7.40;;;;;;;3.09;100.00;99031.08;273621;1270;22441;-88
2023/11/17 23:27:24;;;;;;;10.60;7.20;;;;;;;3.07;100.00;99035.45;273452;1272;22272;-87
2023/11/17 23:33:27;;;;;;;12.90;6.20;;;;;;;3.04;100.00;99037.73;273210;1269;22397;-87
2023/11/17 23:39:33;;;;;;;9.80;6.10;;;;;;;3.04;100.00;99038.19;273612;1272;23129;-87
2023/11/17 23:45:38;;;;;;;10.00;6.10;;;;;;;3.01;100.00;99037.46;273780;1269;23302;-87
2023/11/17 23:51:43;;;;;;;11.60;6.50;;;;;;;2.95;100.00;99037.30;272765;1269;22414;-86
2023/11/17 23:57:52;;;;;;;10.80;6.70;;;;;;;2.94;100.00;99037.94;273453;1270;22405;-88
